sensor_id;sensor_type;location;lat;lon;timestamp;P1;durP1;ratioP1;P2;durP2;ratioP2
63965;SDS011;50151;52.030;5.350;2022-12-05T00:03:55;33.42;;;17.27;;
63965;SDS011;50151;52.030;5.350;2022-12-05T00:06:25;43.80;;;21.13;;
63965;SDS011;50151;52.030;5.350;2022-12-05T00:08:52;39.35;;;20.08;;
63965;SDS011;50151;52.030;5.350;2022-12-05T00:11:21;43.08;;;20.58;;
63965;SDS011;50151;52.030;5.350;2022-12-05T00:13:49;38.90;;;20.60;;
63965;SDS011;50151;52.030;5.350;2022-12-05T00:16:18;39.03;;;19.77;;
63965;SDS011;50151;52.030;5.350;2022-12-05T00:18:47;40.03;;;20.60;;
63965;SDS011;50151;52.030;5.350;2022-12-05T00:21:18;43.10;;;19.73;;
63965;SDS011;50151;52.030;5.350;2022-12-05T00:23:50;37.65;;;19.70;;
63965;SDS011;50151;52.030;5.350;2022-12-05T00:26:18;37.92;;;19.65;;
63965;SDS011;50151;52.030;5.350;2022-12-05T00:28:45;40.03;;;18.85;;
63965;SDS011;50151;52.030;5.350;2022-12-05T00:31:14;38.45;;;19.35;;
63965;SDS011;50151;52.030;5.350;2022-12-05T00:33:47;41.00;;;19.50;;
63965;SDS011;50151;52.030;5.350;2022-12-05T00:36:15;32.35;;;17.40;;
63965;SDS011;50151;52.030;5.350;2022-12-05T00:38:44;38.40;;;18.95;;
63965;SDS011;50151;52.030;5.350;2022-12-05T00:41:12;36.63;;;18.70;;
63965;SDS011;50151;52.030;5.350;2022-12-05T00:43:40;43.80;;;21.02;;
63965;SDS011;50151;52.030;5.350;2022-12-05T00:46:08;38.03;;;18.80;;
63965;SDS011;50151;52.030;5.350;2022-12-05T00:48:37;41.17;;;20.23;;
63965;SDS011;50151;52.030;5.350;2022-12-05T00:51:05;34.00;;;18.20;;
63965;SDS011;50151;52.030;5.350;2022-12-05T00:53:37;43.28;;;20.05;;
63965;SDS011;50151;52.030;5.350;2022-12-05T00:56:08;40.53;;;19.33;;
63965;SDS011;50151;52.030;5.350;2022-12-05T00:58:36;40.83;;;19.13;;
63965;SDS011;50151;52.030;5.350;2022-12-05T01:01:08;34.33;;;17.80;;
63965;SDS011;50151;52.030;5.350;2022-12-05T01:03:43;39.58;;;19.08;;
63965;SDS011;50151;52.030;5.350;2022-12-05T01:06:11;44.22;;;20.83;;
63965;SDS011;50151;52.030;5.350;2022-12-05T01:08:38;34.42;;;18.65;;
63965;SDS011;50151;52.030;5.350;2022-12-05T01:11:06;38.03;;;19.45;;
63965;SDS011;50151;52.030;5.350;2022-12-05T01:13:34;37.35;;;18.70;;
63965;SDS011;50151;52.030;5.350;2022-12-05T01:16:02;35.65;;;19.08;;
63965;SDS011;50151;52.030;5.350;2022-12-05T01:18:29;40.10;;;19.02;;
63965;SDS011;50151;52.030;5.350;2022-12-05T01:20:56;38.55;;;19.10;;
63965;SDS011;50151;52.030;5.350;2022-12-05T01:23:23;37.10;;;18.77;;
63965;SDS011;50151;52.030;5.350;2022-12-05T01:25:50;40.35;;;19.92;;
63965;SDS011;50151;52.030;5.350;2022-12-05T01:28:18;40.80;;;19.40;;
63965;SDS011;50151;52.030;5.350;2022-12-05T01:30:46;37.17;;;18.65;;
63965;SDS011;50151;52.030;5.350;2022-12-05T01:33:14;40.13;;;19.40;;
63965;SDS011;50151;52.030;5.350;2022-12-05T01:35:41;37.55;;;18.85;;
63965;SDS011;50151;52.030;5.350;2022-12-05T01:38:09;36.60;;;18.48;;
63965;SDS011;50151;52.030;5.350;2022-12-05T01:40:37;34.85;;;18.33;;
63965;SDS011;50151;52.030;5.350;2022-12-05T01:43:05;38.63;;;19.08;;
63965;SDS011;50151;52.030;5.350;2022-12-05T01:45:40;35.67;;;17.42;;
63965;SDS011;50151;52.030;5.350;2022-12-05T01:48:30;39.78;;;19.20;;
63965;SDS011;50151;52.030;5.350;2022-12-05T01:50:59;32.90;;;17.30;;
63965;SDS011;50151;52.030;5.350;2022-12-05T01:53:26;33.65;;;18.13;;
63965;SDS011;50151;52.030;5.350;2022-12-05T01:55:54;36.30;;;18.38;;
63965;SDS011;50151;52.030;5.350;2022-12-05T01:58:22;36.75;;;18.55;;
63965;SDS011;50151;52.030;5.350;2022-12-05T02:00:53;37.22;;;17.55;;
63965;SDS011;50151;52.030;5.350;2022-12-05T02:03:19;37.83;;;18.35;;
63965;SDS011;50151;52.030;5.350;2022-12-05T02:05:47;39.15;;;18.95;;
63965;SDS011;50151;52.030;5.350;2022-12-05T02:08:16;37.08;;;18.05;;
63965;SDS011;50151;52.030;5.350;2022-12-05T02:10:51;35.65;;;18.08;;
63965;SDS011;50151;52.030;5.350;2022-12-05T02:16:44;34.92;;;16.65;;
63965;SDS011;50151;52.030;5.350;2022-12-05T02:19:09;36.92;;;18.20;;
63965;SDS011;50151;52.030;5.350;2022-12-05T02:32:32;35.25;;;17.02;;
63965;SDS011;50151;52.030;5.350;2022-12-05T02:37:46;34.13;;;17.98;;
63965;SDS011;50151;52.030;5.350;2022-12-05T02:41:03;32.10;;;17.63;;
63965;SDS011;50151;52.030;5.350;2022-12-05T02:43:43;33.78;;;17.13;;
63965;SDS011;50151;52.030;5.350;2022-12-05T02:46:22;33.45;;;17.02;;
63965;SDS011;50151;52.030;5.350;2022-12-05T02:48:55;33.80;;;16.88;;
63965;SDS011;50151;52.030;5.350;2022-12-05T02:51:28;34.15;;;15.50;;
63965;SDS011;50151;52.030;5.350;2022-12-05T02:53:58;38.95;;;17.63;;
63965;SDS011;50151;52.030;5.350;2022-12-05T02:56:30;32.67;;;17.45;;
63965;SDS011;50151;52.030;5.350;2022-12-05T02:58:59;33.05;;;17.60;;
63965;SDS011;50151;52.030;5.350;2022-12-05T03:01:27;30.25;;;16.67;;
63965;SDS011;50151;52.030;5.350;2022-12-05T03:03:57;38.50;;;18.33;;
63965;SDS011;50151;52.030;5.350;2022-12-05T03:06:27;30.33;;;16.65;;
63965;SDS011;50151;52.030;5.350;2022-12-05T03:09:00;31.58;;;16.65;;
63965;SDS011;50151;52.030;5.350;2022-12-05T03:11:39;33.90;;;17.02;;
63965;SDS011;50151;52.030;5.350;2022-12-05T03:14:14;30.65;;;16.80;;
63965;SDS011;50151;52.030;5.350;2022-12-05T03:16:51;35.08;;;16.90;;
63965;SDS011;50151;52.030;5.350;2022-12-05T03:19:35;29.02;;;15.27;;
63965;SDS011;50151;52.030;5.350;2022-12-05T03:22:07;33.95;;;17.55;;
63965;SDS011;50151;52.030;5.350;2022-12-05T03:24:47;31.08;;;16.75;;
63965;SDS011;50151;52.030;5.350;2022-12-05T03:27:28;31.77;;;16.63;;
63965;SDS011;50151;52.030;5.350;2022-12-05T03:30:09;31.38;;;16.30;;
63965;SDS011;50151;52.030;5.350;2022-12-05T03:32:44;33.42;;;16.92;;
63965;SDS011;50151;52.030;5.350;2022-12-05T03:35:43;33.85;;;16.45;;
63965;SDS011;50151;52.030;5.350;2022-12-05T03:41:08;29.35;;;15.60;;
63965;SDS011;50151;52.030;5.350;2022-12-05T03:46:28;32.30;;;16.45;;
63965;SDS011;50151;52.030;5.350;2022-12-05T03:51:44;29.65;;;14.88;;
63965;SDS011;50151;52.030;5.350;2022-12-05T03:54:17;31.70;;;15.52;;
63965;SDS011;50151;52.030;5.350;2022-12-05T03:57:01;28.80;;;15.55;;
63965;SDS011;50151;52.030;5.350;2022-12-05T03:59:43;29.73;;;16.17;;
63965;SDS011;50151;52.030;5.350;2022-12-05T04:02:14;26.60;;;15.40;;
63965;SDS011;50151;52.030;5.350;2022-12-05T04:05:03;30.13;;;15.80;;
63965;SDS011;50151;52.030;5.350;2022-12-05T04:07:37;28.80;;;15.70;;
63965;SDS011;50151;52.030;5.350;2022-12-05T04:10:06;27.45;;;15.23;;
63965;SDS011;50151;52.030;5.350;2022-12-05T04:12:39;27.73;;;14.80;;
63965;SDS011;50151;52.030;5.350;2022-12-05T04:15:13;24.60;;;14.63;;
63965;SDS011;50151;52.030;5.350;2022-12-05T04:17:55;28.00;;;15.18;;
63965;SDS011;50151;52.030;5.350;2022-12-05T04:23:12;28.55;;;14.95;;
63965;SDS011;50151;52.030;5.350;2022-12-05T04:26:02;23.05;;;13.85;;
63965;SDS011;50151;52.030;5.350;2022-12-05T04:29:01;26.83;;;14.15;;
63965;SDS011;50151;52.030;5.350;2022-12-05T04:31:42;31.80;;;14.95;;
63965;SDS011;50151;52.030;5.350;2022-12-05T04:34:12;25.60;;;14.23;;
63965;SDS011;50151;52.030;5.350;2022-12-05T04:42:03;27.73;;;13.57;;
63965;SDS011;50151;52.030;5.350;2022-12-05T04:47:02;23.52;;;13.45;;
63965;SDS011;50151;52.030;5.350;2022-12-05T04:49:31;26.42;;;13.68;;
63965;SDS011;50151;52.030;5.350;2022-12-05T04:52:01;23.67;;;14.30;;
63965;SDS011;50151;52.030;5.350;2022-12-05T04:54:52;25.50;;;14.45;;
63965;SDS011;50151;52.030;5.350;2022-12-05T05:00:25;28.08;;;13.90;;
63965;SDS011;50151;52.030;5.350;2022-12-05T05:02:57;25.02;;;13.30;;
63965;SDS011;50151;52.030;5.350;2022-12-05T05:05:30;25.45;;;13.10;;
63965;SDS011;50151;52.030;5.350;2022-12-05T05:07:59;24.27;;;13.43;;
63965;SDS011;50151;52.030;5.350;2022-12-05T05:10:32;27.00;;;14.75;;
63965;SDS011;50151;52.030;5.350;2022-12-05T05:13:03;23.23;;;13.50;;
63965;SDS011;50151;52.030;5.350;2022-12-05T05:15:30;26.90;;;14.35;;
63965;SDS011;50151;52.030;5.350;2022-12-05T05:17:57;25.65;;;13.68;;
63965;SDS011;50151;52.030;5.350;2022-12-05T05:20:23;25.52;;;14.23;;
63965;SDS011;50151;52.030;5.350;2022-12-05T05:22:52;23.75;;;12.88;;
63965;SDS011;50151;52.030;5.350;2022-12-05T05:25:20;26.73;;;14.80;;
63965;SDS011;50151;52.030;5.350;2022-12-05T05:27:50;24.17;;;13.23;;
63965;SDS011;50151;52.030;5.350;2022-12-05T05:30:19;27.33;;;14.13;;
63965;SDS011;50151;52.030;5.350;2022-12-05T05:32:46;25.67;;;13.48;;
63965;SDS011;50151;52.030;5.350;2022-12-05T05:35:13;26.20;;;14.00;;
63965;SDS011;50151;52.030;5.350;2022-12-05T05:37:41;29.00;;;13.90;;
63965;SDS011;50151;52.030;5.350;2022-12-05T05:40:09;17.60;;;11.05;;
63965;SDS011;50151;52.030;5.350;2022-12-05T05:42:47;26.50;;;14.18;;
63965;SDS011;50151;52.030;5.350;2022-12-05T05:45:15;24.08;;;12.82;;
63965;SDS011;50151;52.030;5.350;2022-12-05T05:47:42;25.98;;;13.65;;
63965;SDS011;50151;52.030;5.350;2022-12-05T05:50:09;23.70;;;13.88;;
63965;SDS011;50151;52.030;5.350;2022-12-05T05:52:43;25.20;;;14.10;;
63965;SDS011;50151;52.030;5.350;2022-12-05T05:55:09;24.45;;;14.50;;
63965;SDS011;50151;52.030;5.350;2022-12-05T05:57:36;27.15;;;14.25;;
63965;SDS011;50151;52.030;5.350;2022-12-05T06:00:04;24.38;;;13.65;;
63965;SDS011;50151;52.030;5.350;2022-12-05T06:02:32;26.55;;;14.75;;
63965;SDS011;50151;52.030;5.350;2022-12-05T06:05:00;25.75;;;14.13;;
63965;SDS011;50151;52.030;5.350;2022-12-05T06:07:27;25.42;;;14.27;;
63965;SDS011;50151;52.030;5.350;2022-12-05T06:09:54;28.52;;;14.50;;
63965;SDS011;50151;52.030;5.350;2022-12-05T06:12:21;21.17;;;13.05;;
63965;SDS011;50151;52.030;5.350;2022-12-05T06:14:48;30.15;;;14.20;;
63965;SDS011;50151;52.030;5.350;2022-12-05T06:17:16;23.20;;;13.77;;
63965;SDS011;50151;52.030;5.350;2022-12-05T06:19:43;21.60;;;12.10;;
63965;SDS011;50151;52.030;5.350;2022-12-05T06:22:09;24.95;;;13.48;;
63965;SDS011;50151;52.030;5.350;2022-12-05T06:24:36;21.35;;;12.55;;
63965;SDS011;50151;52.030;5.350;2022-12-05T06:27:03;24.80;;;13.88;;
63965;SDS011;50151;52.030;5.350;2022-12-05T06:29:30;24.75;;;13.90;;
63965;SDS011;50151;52.030;5.350;2022-12-05T06:31:59;25.98;;;14.57;;
63965;SDS011;50151;52.030;5.350;2022-12-05T06:34:26;22.75;;;13.05;;
63965;SDS011;50151;52.030;5.350;2022-12-05T06:36:53;28.00;;;15.10;;
63965;SDS011;50151;52.030;5.350;2022-12-05T06:39:20;24.15;;;13.52;;
63965;SDS011;50151;52.030;5.350;2022-12-05T06:41:47;23.92;;;13.75;;
63965;SDS011;50151;52.030;5.350;2022-12-05T06:44:13;26.92;;;14.20;;
63965;SDS011;50151;52.030;5.350;2022-12-05T06:46:40;27.02;;;13.65;;
63965;SDS011;50151;52.030;5.350;2022-12-05T06:49:08;20.55;;;12.63;;
63965;SDS011;50151;52.030;5.350;2022-12-05T06:51:35;26.13;;;14.00;;
63965;SDS011;50151;52.030;5.350;2022-12-05T06:54:02;30.75;;;13.30;;
63965;SDS011;50151;52.030;5.350;2022-12-05T06:56:29;23.40;;;13.05;;
63965;SDS011;50151;52.030;5.350;2022-12-05T06:58:55;26.90;;;13.85;;
63965;SDS011;50151;52.030;5.350;2022-12-05T07:01:22;26.35;;;14.30;;
63965;SDS011;50151;52.030;5.350;2022-12-05T07:04:19;27.48;;;14.25;;
63965;SDS011;50151;52.030;5.350;2022-12-05T07:06:50;24.83;;;13.23;;
63965;SDS011;50151;52.030;5.350;2022-12-05T07:09:18;25.70;;;13.60;;
63965;SDS011;50151;52.030;5.350;2022-12-05T07:11:48;23.20;;;12.60;;
63965;SDS011;50151;52.030;5.350;2022-12-05T07:14:16;23.23;;;12.48;;
63965;SDS011;50151;52.030;5.350;2022-12-05T07:17:03;26.38;;;13.43;;
63965;SDS011;50151;52.030;5.350;2022-12-05T07:19:30;24.48;;;13.10;;
63965;SDS011;50151;52.030;5.350;2022-12-05T07:21:57;24.98;;;13.82;;
63965;SDS011;50151;52.030;5.350;2022-12-05T07:24:24;23.52;;;12.43;;
63965;SDS011;50151;52.030;5.350;2022-12-05T07:26:50;26.10;;;13.45;;
63965;SDS011;50151;52.030;5.350;2022-12-05T07:29:17;23.42;;;12.85;;
63965;SDS011;50151;52.030;5.350;2022-12-05T07:31:44;22.13;;;12.85;;
63965;SDS011;50151;52.030;5.350;2022-12-05T07:34:11;27.70;;;13.00;;
63965;SDS011;50151;52.030;5.350;2022-12-05T07:36:38;24.95;;;14.15;;
63965;SDS011;50151;52.030;5.350;2022-12-05T07:39:05;21.77;;;13.55;;
63965;SDS011;50151;52.030;5.350;2022-12-05T07:41:32;25.48;;;13.45;;
63965;SDS011;50151;52.030;5.350;2022-12-05T07:44:00;25.48;;;12.45;;
63965;SDS011;50151;52.030;5.350;2022-12-05T07:46:27;27.63;;;13.85;;
63965;SDS011;50151;52.030;5.350;2022-12-05T07:48:56;26.35;;;13.52;;
63965;SDS011;50151;52.030;5.350;2022-12-05T07:51:23;26.70;;;12.88;;
63965;SDS011;50151;52.030;5.350;2022-12-05T07:53:50;23.52;;;13.05;;
63965;SDS011;50151;52.030;5.350;2022-12-05T07:56:17;24.98;;;13.55;;
63965;SDS011;50151;52.030;5.350;2022-12-05T07:58:45;24.05;;;12.50;;
63965;SDS011;50151;52.030;5.350;2022-12-05T08:01:15;24.65;;;12.93;;
63965;SDS011;50151;52.030;5.350;2022-12-05T08:03:44;23.98;;;13.27;;
63965;SDS011;50151;52.030;5.350;2022-12-05T08:06:12;26.92;;;13.45;;
63965;SDS011;50151;52.030;5.350;2022-12-05T08:08:41;28.45;;;13.77;;
63965;SDS011;50151;52.030;5.350;2022-12-05T08:11:09;26.08;;;12.60;;
63965;SDS011;50151;52.030;5.350;2022-12-05T08:13:38;25.88;;;13.27;;
63965;SDS011;50151;52.030;5.350;2022-12-05T08:16:07;27.05;;;12.68;;
63965;SDS011;50151;52.030;5.350;2022-12-05T08:18:36;25.33;;;13.02;;
63965;SDS011;50151;52.030;5.350;2022-12-05T08:21:04;22.92;;;12.85;;
63965;SDS011;50151;52.030;5.350;2022-12-05T08:23:32;27.35;;;12.90;;
63965;SDS011;50151;52.030;5.350;2022-12-05T08:26:00;27.52;;;13.52;;
63965;SDS011;50151;52.030;5.350;2022-12-05T08:28:50;26.75;;;12.73;;
63965;SDS011;50151;52.030;5.350;2022-12-05T08:31:19;26.05;;;12.00;;
63965;SDS011;50151;52.030;5.350;2022-12-05T08:33:49;24.52;;;12.80;;
63965;SDS011;50151;52.030;5.350;2022-12-05T08:36:24;26.20;;;12.68;;
63965;SDS011;50151;52.030;5.350;2022-12-05T08:38:58;26.15;;;13.23;;
63965;SDS011;50151;52.030;5.350;2022-12-05T08:41:31;24.25;;;12.52;;
63965;SDS011;50151;52.030;5.350;2022-12-05T08:43:59;25.20;;;13.10;;
63965;SDS011;50151;52.030;5.350;2022-12-05T08:46:31;22.83;;;12.98;;
63965;SDS011;50151;52.030;5.350;2022-12-05T08:48:59;27.55;;;12.95;;
63965;SDS011;50151;52.030;5.350;2022-12-05T08:51:26;25.15;;;12.35;;
63965;SDS011;50151;52.030;5.350;2022-12-05T08:53:53;21.95;;;11.85;;
63965;SDS011;50151;52.030;5.350;2022-12-05T08:56:21;26.48;;;12.77;;
63965;SDS011;50151;52.030;5.350;2022-12-05T08:58:52;25.38;;;12.48;;
63965;SDS011;50151;52.030;5.350;2022-12-05T09:01:29;22.83;;;12.00;;
63965;SDS011;50151;52.030;5.350;2022-12-05T09:03:58;23.20;;;12.07;;
63965;SDS011;50151;52.030;5.350;2022-12-05T09:06:26;26.88;;;12.27;;
63965;SDS011;50151;52.030;5.350;2022-12-05T09:08:55;20.02;;;11.50;;
63965;SDS011;50151;52.030;5.350;2022-12-05T09:11:28;22.27;;;11.77;;
63965;SDS011;50151;52.030;5.350;2022-12-05T09:13:57;22.98;;;11.80;;
63965;SDS011;50151;52.030;5.350;2022-12-05T09:16:26;25.55;;;12.93;;
63965;SDS011;50151;52.030;5.350;2022-12-05T09:19:03;23.13;;;12.38;;
63965;SDS011;50151;52.030;5.350;2022-12-05T09:21:31;19.75;;;11.32;;
63965;SDS011;50151;52.030;5.350;2022-12-05T09:23:58;23.30;;;11.50;;
63965;SDS011;50151;52.030;5.350;2022-12-05T09:26:26;22.02;;;12.65;;
63965;SDS011;50151;52.030;5.350;2022-12-05T09:28:55;20.73;;;11.52;;
63965;SDS011;50151;52.030;5.350;2022-12-05T09:31:22;25.05;;;12.10;;
63965;SDS011;50151;52.030;5.350;2022-12-05T09:33:52;23.73;;;13.35;;
63965;SDS011;50151;52.030;5.350;2022-12-05T09:36:20;22.48;;;11.85;;
63965;SDS011;50151;52.030;5.350;2022-12-05T09:38:49;23.13;;;12.45;;
63965;SDS011;50151;52.030;5.350;2022-12-05T09:41:20;21.08;;;11.93;;
63965;SDS011;50151;52.030;5.350;2022-12-05T09:47:11;23.60;;;12.30;;
63965;SDS011;50151;52.030;5.350;2022-12-05T09:53:01;22.83;;;11.32;;
63965;SDS011;50151;52.030;5.350;2022-12-05T09:55:28;24.48;;;12.75;;
63965;SDS011;50151;52.030;5.350;2022-12-05T09:58:25;20.65;;;11.82;;
63965;SDS011;50151;52.030;5.350;2022-12-05T10:01:11;20.65;;;12.00;;
63965;SDS011;50151;52.030;5.350;2022-12-05T10:15:22;20.67;;;11.10;;
63965;SDS011;50151;52.030;5.350;2022-12-05T10:20:49;18.88;;;10.75;;
63965;SDS011;50151;52.030;5.350;2022-12-05T10:26:40;17.95;;;9.75;;
63965;SDS011;50151;52.030;5.350;2022-12-05T10:31:53;18.73;;;10.65;;
63965;SDS011;50151;52.030;5.350;2022-12-05T10:34:30;12.77;;;7.40;;
63965;SDS011;50151;52.030;5.350;2022-12-05T10:37:09;15.77;;;9.80;;
63965;SDS011;50151;52.030;5.350;2022-12-05T10:39:37;16.88;;;9.75;;
63965;SDS011;50151;52.030;5.350;2022-12-05T10:42:05;14.95;;;10.27;;
63965;SDS011;50151;52.030;5.350;2022-12-05T10:44:40;17.45;;;10.00;;
63965;SDS011;50151;52.030;5.350;2022-12-05T10:47:08;17.60;;;9.52;;
63965;SDS011;50151;52.030;5.350;2022-12-05T10:49:35;16.67;;;9.48;;
63965;SDS011;50151;52.030;5.350;2022-12-05T10:52:03;19.70;;;9.45;;
63965;SDS011;50151;52.030;5.350;2022-12-05T10:54:31;17.65;;;10.07;;
63965;SDS011;50151;52.030;5.350;2022-12-05T10:57:18;16.52;;;9.80;;
63965;SDS011;50151;52.030;5.350;2022-12-05T10:59:53;16.52;;;9.55;;
63965;SDS011;50151;52.030;5.350;2022-12-05T11:02:26;14.27;;;9.80;;
63965;SDS011;50151;52.030;5.350;2022-12-05T11:04:54;13.25;;;8.73;;
63965;SDS011;50151;52.030;5.350;2022-12-05T11:10:21;16.38;;;9.15;;
63965;SDS011;50151;52.030;5.350;2022-12-05T11:13:00;15.43;;;9.38;;
63965;SDS011;50151;52.030;5.350;2022-12-05T11:15:28;14.85;;;8.90;;
63965;SDS011;50151;52.030;5.350;2022-12-05T11:17:56;18.17;;;9.93;;
63965;SDS011;50151;52.030;5.350;2022-12-05T11:20:42;15.43;;;9.73;;
63965;SDS011;50151;52.030;5.350;2022-12-05T11:23:16;16.45;;;8.85;;
63965;SDS011;50151;52.030;5.350;2022-12-05T11:25:48;15.80;;;9.25;;
63965;SDS011;50151;52.030;5.350;2022-12-05T11:33:24;15.55;;;8.60;;
63965;SDS011;50151;52.030;5.350;2022-12-05T11:35:57;12.77;;;8.00;;
63965;SDS011;50151;52.030;5.350;2022-12-05T11:38:38;10.85;;;7.55;;
63965;SDS011;50151;52.030;5.350;2022-12-05T11:49:36;7.22;;;5.18;;
63965;SDS011;50151;52.030;5.350;2022-12-05T11:55:23;8.20;;;4.78;;
63965;SDS011;50151;52.030;5.350;2022-12-05T11:58:00;6.35;;;4.45;;
63965;SDS011;50151;52.030;5.350;2022-12-05T12:00:44;6.88;;;3.78;;
63965;SDS011;50151;52.030;5.350;2022-12-05T12:06:08;5.55;;;3.58;;
63965;SDS011;50151;52.030;5.350;2022-12-05T12:09:05;5.07;;;3.30;;
63965;SDS011;50151;52.030;5.350;2022-12-05T12:22:41;14.13;;;4.22;;
63965;SDS011;50151;52.030;5.350;2022-12-05T12:28:36;4.63;;;2.97;;
63965;SDS011;50151;52.030;5.350;2022-12-05T12:31:06;10.45;;;3.78;;
63965;SDS011;50151;52.030;5.350;2022-12-05T12:36:45;5.60;;;3.20;;
63965;SDS011;50151;52.030;5.350;2022-12-05T12:45:01;5.40;;;3.35;;
63965;SDS011;50151;52.030;5.350;2022-12-05T12:48:04;5.32;;;3.00;;
63965;SDS011;50151;52.030;5.350;2022-12-05T12:50:51;4.40;;;2.75;;
63965;SDS011;50151;52.030;5.350;2022-12-05T12:58:53;5.93;;;2.97;;
63965;SDS011;50151;52.030;5.350;2022-12-05T13:04:46;3.90;;;2.70;;
63965;SDS011;50151;52.030;5.350;2022-12-05T13:07:26;4.22;;;2.85;;
63965;SDS011;50151;52.030;5.350;2022-12-05T13:10:45;5.43;;;2.70;;
63965;SDS011;50151;52.030;5.350;2022-12-05T13:13:00;7.88;;;2.95;;
63965;SDS011;50151;52.030;5.350;2022-12-05T13:15:33;5.15;;;2.72;;
63965;SDS011;50151;52.030;5.350;2022-12-05T13:18:06;5.15;;;2.78;;
63965;SDS011;50151;52.030;5.350;2022-12-05T13:20:41;8.32;;;2.60;;
63965;SDS011;50151;52.030;5.350;2022-12-05T13:23:11;2.63;;;1.98;;
63965;SDS011;50151;52.030;5.350;2022-12-05T13:25:41;5.65;;;2.60;;
63965;SDS011;50151;52.030;5.350;2022-12-05T13:28:22;4.53;;;2.20;;
63965;SDS011;50151;52.030;5.350;2022-12-05T13:30:58;2.85;;;1.88;;
63965;SDS011;50151;52.030;5.350;2022-12-05T13:33:34;4.50;;;2.60;;
63965;SDS011;50151;52.030;5.350;2022-12-05T13:36:19;4.72;;;2.30;;
63965;SDS011;50151;52.030;5.350;2022-12-05T13:39:06;3.80;;;2.40;;
63965;SDS011;50151;52.030;5.350;2022-12-05T13:42:03;3.83;;;2.30;;
63965;SDS011;50151;52.030;5.350;2022-12-05T13:44:50;3.95;;;2.50;;
63965;SDS011;50151;52.030;5.350;2022-12-05T13:50:44;4.35;;;2.47;;
63965;SDS011;50151;52.030;5.350;2022-12-05T13:58:41;3.53;;;2.17;;
63965;SDS011;50151;52.030;5.350;2022-12-05T14:03:58;4.40;;;2.30;;
63965;SDS011;50151;52.030;5.350;2022-12-05T14:17:41;4.03;;;2.78;;
63965;SDS011;50151;52.030;5.350;2022-12-05T14:28:36;3.03;;;2.25;;
63965;SDS011;50151;52.030;5.350;2022-12-05T14:39:46;7.40;;;2.53;;
63965;SDS011;50151;52.030;5.350;2022-12-05T14:47:54;4.70;;;2.60;;
63965;SDS011;50151;52.030;5.350;2022-12-05T14:50:36;5.10;;;2.30;;
63965;SDS011;50151;52.030;5.350;2022-12-05T14:55:49;3.38;;;2.50;;
63965;SDS011;50151;52.030;5.350;2022-12-05T15:00:57;4.00;;;2.17;;
63965;SDS011;50151;52.030;5.350;2022-12-05T15:03:37;5.15;;;2.53;;
63965;SDS011;50151;52.030;5.350;2022-12-05T15:06:11;3.92;;;2.88;;
63965;SDS011;50151;52.030;5.350;2022-12-05T15:08:43;3.83;;;2.60;;
63965;SDS011;50151;52.030;5.350;2022-12-05T15:11:14;4.68;;;2.35;;
63965;SDS011;50151;52.030;5.350;2022-12-05T15:16:42;3.90;;;2.75;;
63965;SDS011;50151;52.030;5.350;2022-12-05T15:19:28;6.13;;;3.17;;
63965;SDS011;50151;52.030;5.350;2022-12-05T15:21:59;4.32;;;2.58;;
63965;SDS011;50151;52.030;5.350;2022-12-05T15:24:35;6.43;;;2.72;;
63965;SDS011;50151;52.030;5.350;2022-12-05T15:27:04;3.75;;;2.28;;
63965;SDS011;50151;52.030;5.350;2022-12-05T15:29:31;3.58;;;2.47;;
63965;SDS011;50151;52.030;5.350;2022-12-05T15:34:28;3.47;;;2.28;;
63965;SDS011;50151;52.030;5.350;2022-12-05T15:42:52;3.30;;;2.50;;
63965;SDS011;50151;52.030;5.350;2022-12-05T15:45:27;3.28;;;2.25;;
63965;SDS011;50151;52.030;5.350;2022-12-05T15:47:56;4.10;;;2.50;;
63965;SDS011;50151;52.030;5.350;2022-12-05T15:53:03;4.43;;;3.00;;
63965;SDS011;50151;52.030;5.350;2022-12-05T15:55:37;4.47;;;2.38;;
63965;SDS011;50151;52.030;5.350;2022-12-05T15:58:26;3.28;;;2.50;;
63965;SDS011;50151;52.030;5.350;2022-12-05T16:06:36;4.35;;;2.60;;
63965;SDS011;50151;52.030;5.350;2022-12-05T16:09:13;4.05;;;2.90;;
63965;SDS011;50151;52.030;5.350;2022-12-05T16:11:49;4.13;;;2.88;;
63965;SDS011;50151;52.030;5.350;2022-12-05T16:14:22;3.90;;;2.83;;
63965;SDS011;50151;52.030;5.350;2022-12-05T16:17:12;4.55;;;2.90;;
63965;SDS011;50151;52.030;5.350;2022-12-05T16:19:41;5.72;;;2.60;;
63965;SDS011;50151;52.030;5.350;2022-12-05T16:24:42;7.07;;;2.83;;
63965;SDS011;50151;52.030;5.350;2022-12-05T16:27:14;5.53;;;2.90;;
63965;SDS011;50151;52.030;5.350;2022-12-05T16:29:41;6.07;;;3.35;;
63965;SDS011;50151;52.030;5.350;2022-12-05T16:32:16;5.15;;;3.03;;
63965;SDS011;50151;52.030;5.350;2022-12-05T16:34:48;4.88;;;2.92;;
63965;SDS011;50151;52.030;5.350;2022-12-05T16:37:16;6.63;;;3.25;;
63965;SDS011;50151;52.030;5.350;2022-12-05T16:39:48;7.22;;;3.67;;
63965;SDS011;50151;52.030;5.350;2022-12-05T16:42:24;4.30;;;3.17;;
63965;SDS011;50151;52.030;5.350;2022-12-05T16:44:56;5.68;;;3.13;;
63965;SDS011;50151;52.030;5.350;2022-12-05T16:53:01;3.83;;;2.75;;
63965;SDS011;50151;52.030;5.350;2022-12-05T16:55:48;4.45;;;2.90;;
63965;SDS011;50151;52.030;5.350;2022-12-05T16:58:20;5.50;;;3.25;;
63965;SDS011;50151;52.030;5.350;2022-12-05T17:00:51;6.50;;;3.08;;
63965;SDS011;50151;52.030;5.350;2022-12-05T17:03:26;5.18;;;2.85;;
63965;SDS011;50151;52.030;5.350;2022-12-05T17:06:01;5.13;;;3.15;;
63965;SDS011;50151;52.030;5.350;2022-12-05T17:08:28;7.40;;;3.65;;
63965;SDS011;50151;52.030;5.350;2022-12-05T17:10:55;9.00;;;3.65;;
63965;SDS011;50151;52.030;5.350;2022-12-05T17:13:23;5.90;;;3.47;;
63965;SDS011;50151;52.030;5.350;2022-12-05T17:15:50;5.45;;;3.58;;
63965;SDS011;50151;52.030;5.350;2022-12-05T17:18:18;5.40;;;3.05;;
63965;SDS011;50151;52.030;5.350;2022-12-05T17:20:50;5.32;;;3.35;;
63965;SDS011;50151;52.030;5.350;2022-12-05T17:23:18;6.10;;;3.45;;
63965;SDS011;50151;52.030;5.350;2022-12-05T17:25:46;6.90;;;3.58;;
63965;SDS011;50151;52.030;5.350;2022-12-05T17:28:18;7.13;;;3.65;;
63965;SDS011;50151;52.030;5.350;2022-12-05T17:30:45;7.25;;;3.80;;
63965;SDS011;50151;52.030;5.350;2022-12-05T17:33:13;5.90;;;3.50;;
63965;SDS011;50151;52.030;5.350;2022-12-05T17:35:41;5.28;;;3.70;;
63965;SDS011;50151;52.030;5.350;2022-12-05T17:38:08;4.82;;;3.00;;
63965;SDS011;50151;52.030;5.350;2022-12-05T17:40:39;9.25;;;3.75;;
63965;SDS011;50151;52.030;5.350;2022-12-05T17:43:08;7.75;;;3.80;;
63965;SDS011;50151;52.030;5.350;2022-12-05T17:45:37;9.10;;;4.00;;
63965;SDS011;50151;52.030;5.350;2022-12-05T17:48:04;6.20;;;3.55;;
63965;SDS011;50151;52.030;5.350;2022-12-05T17:50:31;5.88;;;4.00;;
63965;SDS011;50151;52.030;5.350;2022-12-05T17:52:58;7.63;;;4.00;;
63965;SDS011;50151;52.030;5.350;2022-12-05T17:55:32;9.35;;;4.72;;
63965;SDS011;50151;52.030;5.350;2022-12-05T17:57:59;7.13;;;4.35;;
63965;SDS011;50151;52.030;5.350;2022-12-05T18:00:26;9.02;;;5.32;;
63965;SDS011;50151;52.030;5.350;2022-12-05T18:02:52;6.95;;;4.40;;
63965;SDS011;50151;52.030;5.350;2022-12-05T18:05:19;7.40;;;4.53;;
63965;SDS011;50151;52.030;5.350;2022-12-05T18:07:46;7.40;;;4.18;;
63965;SDS011;50151;52.030;5.350;2022-12-05T18:10:15;6.80;;;4.10;;
63965;SDS011;50151;52.030;5.350;2022-12-05T18:12:46;9.03;;;4.10;;
63965;SDS011;50151;52.030;5.350;2022-12-05T18:15:14;5.95;;;4.40;;
63965;SDS011;50151;52.030;5.350;2022-12-05T18:17:41;8.73;;;4.70;;
63965;SDS011;50151;52.030;5.350;2022-12-05T18:20:11;7.55;;;4.18;;